KSWF

Stewart International Airport

New York, New York, USA
METAR KSWF 160045Z 07010KT 10SM SKC 06/04 A3016
Observed Flight Rules
Dec-16 @ 00:45 UTC (an hour ago) Visual Flight Rules
Wind Visibility Clouds
70° at 10 knots 10 miles
  • Clear skies
Temperatures Readings
Current 6°C / 43°F
Dewpoint 4°C / 39°F
Humidity 87%
Altimeter 30.16" Hg
Pressure 1021 hPa
Elevation 150
METAR KSWF 160045Z 07010KT 10SM SKC 06/04 A3016
Observed Flight Rules
Dec-16 @ 00:45 UTC
(an hour ago)
VFR
Wind Visibility
70° at 10 knots 10 miles
Clouds
  • Clear skies
Temperature Dewpoint
6°C / 43°F 4°C / 39°F
Humidity Altimeter Pressure
87% 30.16" Hg 1021 hPa